Time;durP1;ratioP1;P1;durP2;ratioP2;P2;SDS_P1;SDS_P2;PMS_P1;PMS_P2;Temp;Humidity;BMP_temperature;BMP_pressure;BME280_temperature;BME280_humidity;BME280_pressure;Samples;Min_cycle;Max_cycle;Signal;HPM_P1;HPM_P2
2021/07/29 00:01:42;;;;;;;6.73;5.63;;;;;;;21.78;72.71;99666.66;153956;1100;103252;-75
2021/07/29 00:04:45;;;;;;;7.00;6.30;;;;;;;21.75;72.73;99667.16;153984;1093;103107;-75
2021/07/29 00:07:51;;;;;;;9.50;6.93;;;;;;;21.72;72.75;99670.34;154626;1093;103196;-75
2021/07/29 00:10:54;;;;;;;9.43;6.80;;;;;;;21.68;72.59;99677.32;154559;1098;103141;-75
2021/07/29 00:13:58;;;;;;;8.23;6.53;;;;;;;21.63;72.69;99679.92;154649;1098;103187;-76
2021/07/29 00:17:02;;;;;;;8.80;6.05;;;;;;;21.54;72.63;99669.44;154090;1100;103392;-76
2021/07/29 00:20:08;;;;;;;8.03;6.00;;;;;;;21.54;72.78;99674.88;154616;1098;103120;-77
2021/07/29 00:23:11;;;;;;;7.47;6.13;;;;;;;21.52;72.94;99668.04;154001;1093;103126;-78
2021/07/29 00:26:13;;;;;;;8.20;6.67;;;;;;;21.49;72.64;99663.89;153933;1100;103224;-78
2021/07/29 00:29:16;;;;;;;9.57;6.53;;;;;;;21.44;72.63;99661.09;154621;1098;103116;-78
2021/07/29 00:32:19;;;;;;;8.83;5.97;;;;;;;21.41;72.64;99660.71;153966;1100;103260;-78
2021/07/29 00:35:23;;;;;;;7.73;6.10;;;;;;;21.40;72.60;99653.63;154619;1098;103189;-77
2021/07/29 00:38:26;;;;;;;7.30;6.35;;;;;;;21.36;72.59;99659.55;154565;1098;103137;-77
2021/07/29 00:41:28;;;;;;;9.20;6.57;;;;;;;21.34;72.66;99652.69;153972;1096;103192;-80
2021/07/29 00:44:34;;;;;;;8.00;6.73;;;;;;;21.33;72.69;99651.05;154164;1098;103176;-80
2021/07/29 00:47:40;;;;;;;6.93;6.23;;;;;;;21.30;72.76;99649.62;153990;1100;103528;-79
2021/07/29 00:50:44;;;;;;;7.73;6.13;;;;;;;21.28;72.57;99659.89;154647;1098;103585;-76
2021/07/29 00:53:47;;;;;;;7.57;6.10;;;;;;;21.25;72.44;99656.82;153943;1100;103266;-76
2021/07/29 00:56:50;;;;;;;8.00;6.83;;;;;;;21.22;72.50;99652.70;153985;1101;103270;-76
2021/07/29 00:59:54;;;;;;;7.83;6.77;;;;;;;21.17;72.80;99655.30;154584;1098;103208;-78
2021/07/29 01:02:57;;;;;;;8.43;7.00;;;;;;;21.11;72.64;99651.67;153966;1100;103620;-76
2021/07/29 01:06:00;;;;;;;7.57;6.77;;;;;;;21.08;72.61;99652.13;154585;1098;103208;-74
2021/07/29 01:09:08;;;;;;;8.47;6.30;;;;;;;21.06;72.48;99646.13;153958;1100;103310;-78
2021/07/29 01:12:10;;;;;;;10.17;7.00;;;;;;;21.02;72.76;99647.66;153916;1100;103120;-76
2021/07/29 01:15:13;;;;;;;9.80;6.50;;;;;;;21.03;72.71;99649.30;154672;1093;103122;-77
2021/07/29 01:18:16;;;;;;;8.93;7.60;;;;;;;20.99;72.64;99648.13;154000;1100;103296;-77
2021/07/29 01:21:19;;;;;;;10.53;7.30;;;;;;;20.92;72.49;99659.10;154609;1098;103119;-77
2021/07/29 01:24:23;;;;;;;8.33;6.80;;;;;;;20.85;72.78;99652.14;153960;1100;103210;-77
2021/07/29 01:27:30;;;;;;;8.90;6.75;;;;;;;20.81;72.69;99649.08;154028;1100;103187;-77
2021/07/29 01:30:32;;;;;;;7.45;6.50;;;;;;;20.76;72.77;99644.34;154599;1093;103308;-77
2021/07/29 01:33:36;;;;;;;9.33;6.90;;;;;;;20.74;72.69;99645.64;154010;1100;103211;-75
2021/07/29 01:36:39;;;;;;;7.40;6.60;;;;;;;20.67;72.68;99656.61;154628;1093;103213;-76
2021/07/29 01:39:42;;;;;;;9.00;6.35;;;;;;;20.59;72.90;99655.08;154546;1098;103144;-77
2021/07/29 01:42:45;;;;;;;7.80;6.10;;;;;;;20.53;72.53;99655.13;153950;1093;103202;-78
2021/07/29 01:45:48;;;;;;;7.93;5.70;;;;;;;20.46;72.43;99654.41;154624;1093;103189;-77
2021/07/29 01:48:50;;;;;;;7.33;5.90;;;;;;;20.41;72.41;99657.83;154626;1098;103200;-76
2021/07/29 01:51:53;;;;;;;7.73;6.30;;;;;;;20.35;72.71;99662.29;154032;1100;103125;-76
2021/07/29 01:54:56;;;;;;;7.37;5.73;;;;;;;20.29;72.53;99660.51;154553;1098;103122;-76
2021/07/29 01:57:59;;;;;;;10.07;6.17;;;;;;;20.23;72.51;99650.61;153962;1100;103192;-76
2021/07/29 02:01:01;;;;;;;7.35;6.00;;;;;;;20.15;72.55;99659.88;154655;1098;103156;-76
2021/07/29 02:04:05;;;;;;;6.00;5.40;;;;;;;20.12;72.36;99648.68;153941;1100;103254;-82
2021/07/29 02:07:07;;;;;;;8.70;5.17;;;;;;;20.06;72.48;99636.88;154126;1100;103591;-79
2021/07/29 02:10:11;;;;;;;7.73;5.90;;;;;;;20.00;72.41;99638.63;154701;1093;103138;-82
2021/07/29 02:13:14;;;;;;;7.37;5.93;;;;;;;19.97;72.26;99636.37;154136;1100;103132;-80
2021/07/29 02:16:16;;;;;;;7.53;6.00;;;;;;;19.87;72.52;99641.52;154597;1098;103190;-83
2021/07/29 02:19:19;;;;;;;6.70;6.00;;;;;;;19.76;72.46;99639.58;154037;1093;103104;-81
2021/07/29 02:22:22;;;;;;;7.93;5.33;;;;;;;19.68;72.59;99637.17;153999;1093;103277;-79
2021/07/29 02:25:25;;;;;;;6.40;5.23;;;;;;;19.62;72.53;99638.91;154016;1100;103192;-80
2021/07/29 02:28:28;;;;;;;7.43;5.30;;;;;;;19.57;72.48;99653.13;154598;1098;103573;-79
2021/07/29 02:31:31;;;;;;;6.07;5.47;;;;;;;19.52;72.69;99644.86;154620;1098;103181;-83
2021/07/29 02:34:34;;;;;;;8.80;5.87;;;;;;;19.41;72.82;99648.31;154170;1100;103112;-83
2021/07/29 02:37:36;;;;;;;7.07;6.00;;;;;;;19.37;72.70;99655.23;154164;1100;103484;-83
2021/07/29 02:40:39;;;;;;;7.73;5.77;;;;;;;19.28;72.60;99651.16;154179;1100;103177;-81
2021/07/29 02:43:42;;;;;;;7.17;5.47;;;;;;;19.20;72.77;99649.59;154713;1098;103153;-79
2021/07/29 02:46:45;;;;;;;6.90;5.90;;;;;;;19.18;72.80;99660.62;154659;1093;103253;-80
2021/07/29 02:49:47;;;;;;;7.00;5.83;;;;;;;19.13;72.88;99665.89;154602;1093;103212;-81
2021/07/29 02:52:50;;;;;;;9.23;6.37;;;;;;;19.12;72.60;99666.11;154252;1093;103122;-76
2021/07/29 02:55:57;;;;;;;6.30;5.60;;;;;;;19.09;72.72;99675.51;154635;1093;103174;-80
2021/07/29 02:59:00;;;;;;;7.00;5.70;;;;;;;19.03;72.65;99679.08;154101;1100;103253;-79
2021/07/29 03:02:03;;;;;;;6.20;4.90;;;;;;;18.99;72.72;99681.39;154704;1098;103160;-79
2021/07/29 03:05:07;;;;;;;7.40;5.15;;;;;;;19.00;72.74;99682.24;154049;1100;103132;-84
2021/07/29 03:08:10;;;;;;;6.77;5.50;;;;;;;19.01;72.79;99690.14;154823;1098;103187;-80
2021/07/29 03:11:13;;;;;;;7.70;6.30;;;;;;;19.02;72.80;99682.84;154096;1093;103266;-78
2021/07/29 03:14:17;;;;;;;6.63;5.53;;;;;;;18.99;72.74;99688.69;154213;1098;103189;-80
2021/07/29 03:17:20;;;;;;;9.07;5.37;;;;;;;18.97;72.66;99686.20;154085;1093;103125;-79
2021/07/29 03:20:23;;;;;;;9.33;5.43;;;;;;;18.97;72.70;99686.20;154572;1098;103118;-80
2021/07/29 03:23:26;;;;;;;7.73;5.53;;;;;;;18.99;72.54;99691.39;154809;1098;103118;-83
2021/07/29 03:26:29;;;;;;;7.50;5.57;;;;;;;19.00;72.58;99693.88;154075;1093;103262;-82
2021/07/29 03:29:32;;;;;;;8.20;5.87;;;;;;;19.01;72.48;99690.14;154744;1098;103190;-82
2021/07/29 03:32:35;;;;;;;6.50;5.80;;;;;;;18.99;72.52;99688.69;154087;1100;103180;-82
2021/07/29 03:35:37;;;;;;;7.13;6.08;;;;;;;18.95;72.42;99692.89;154872;1098;103126;-83
2021/07/29 03:38:40;;;;;;;7.70;5.50;;;;;;;18.92;72.28;99694.17;154200;1100;103210;-83
2021/07/29 03:41:43;;;;;;;10.40;5.70;;;;;;;18.95;72.41;99693.70;154686;1094;103221;-83
2021/07/29 03:44:46;;;;;;;6.23;5.48;;;;;;;19.00;72.43;99695.77;154172;1100;103129;-83
2021/07/29 03:47:48;;;;;;;8.80;5.90;;;;;;;19.06;72.35;99700.28;154749;1098;103115;-83
2021/07/29 03:50:51;;;;;;;7.50;5.50;;;;;;;19.14;72.28;99708.09;154106;1100;103184;-82
2021/07/29 03:53:54;;;;;;;7.30;5.67;;;;;;;19.27;72.12;99703.63;154690;1094;103196;-82
2021/07/29 03:56:57;;;;;;;7.77;5.47;;;;;;;19.42;72.15;99702.20;154126;1100;103189;-83
2021/07/29 04:00:01;;;;;;;6.57;4.60;;;;;;;19.63;72.23;99705.53;154713;1098;103189;-82
2021/07/29 04:03:06;;;;;;;6.23;4.87;;;;;;;19.84;71.70;99706.13;154684;1093;103122;-83
2021/07/29 04:06:09;;;;;;;5.33;4.83;;;;;;;19.99;71.60;99701.95;154082;1093;103125;-82
2021/07/29 04:09:12;;;;;;;7.37;5.33;;;;;;;20.17;71.63;99711.13;154113;1094;103187;-82
2021/07/29 04:12:15;;;;;;;7.23;5.70;;;;;;;20.34;71.62;99712.13;154699;1098;103237;-82
2021/07/29 04:15:18;;;;;;;8.60;5.17;;;;;;;20.53;71.33;99715.58;154706;1093;103262;-82
2021/07/29 04:18:21;;;;;;;6.65;5.15;;;;;;;20.67;70.89;99718.97;154148;1100;103119;-82
2021/07/29 04:21:24;;;;;;;7.25;5.20;;;;;;;20.81;71.08;99730.42;154079;1100;103561;-83
2021/07/29 04:24:29;;;;;;;6.73;5.00;;;;;;;20.98;70.95;99722.43;154081;1093;103190;-80
2021/07/29 04:27:31;;;;;;;6.30;5.70;;;;;;;21.11;70.47;99718.64;154033;1100;103245;-81
2021/07/29 04:30:34;;;;;;;6.47;5.17;;;;;;;21.22;70.55;99727.86;154047;1100;103256;-81
2021/07/29 04:33:37;;;;;;;6.17;5.10;;;;;;;21.32;70.60;99726.19;154612;1098;103193;-82
2021/07/29 04:36:41;;;;;;;5.53;4.13;;;;;;;21.44;70.20;99726.23;154109;1100;103199;-83
2021/07/29 04:39:44;;;;;;;5.50;4.97;;;;;;;21.60;70.23;99726.57;154693;1093;103151;-81
2021/07/29 04:42:47;;;;;;;5.63;4.57;;;;;;;21.73;70.05;99731.74;154091;1100;103194;-81
2021/07/29 04:45:51;;;;;;;6.07;4.50;;;;;;;21.84;69.90;99736.30;154587;1098;103192;-81
2021/07/29 04:48:54;;;;;;;4.87;4.37;;;;;;;21.99;69.81;99737.69;154167;1100;103179;-82
2021/07/29 04:51:57;;;;;;;6.20;4.70;;;;;;;22.05;69.17;99742.16;154705;1098;103130;-83
2021/07/29 04:54:59;;;;;;;5.83;5.20;;;;;;;22.07;68.90;99737.30;154711;1098;103130;-83
2021/07/29 04:58:03;;;;;;;5.77;5.03;;;;;;;22.02;68.10;99734.47;154107;1093;103519;-83
2021/07/29 05:01:06;;;;;;;7.80;5.10;;;;;;;21.86;69.02;99736.88;154725;1098;103276;-83
2021/07/29 05:04:10;;;;;;;6.30;4.60;;;;;;;21.90;69.05;99732.64;154081;1093;103103;-82
2021/07/29 05:07:13;;;;;;;5.48;4.23;;;;;;;22.06;69.05;99738.38;154117;1100;103224;-81
2021/07/29 05:10:17;;;;;;;5.37;4.87;;;;;;;22.13;68.55;99739.05;154760;1098;103104;-83
2021/07/29 05:13:19;;;;;;;5.27;4.53;;;;;;;22.18;67.91;99735.63;154153;1100;103197;-80
2021/07/29 05:16:22;;;;;;;5.87;5.17;;;;;;;22.16;66.39;99728.52;154668;1098;103125;-79
2021/07/29 05:19:25;;;;;;;6.77;4.97;;;;;;;22.27;68.61;99734.20;154602;1098;103185;-79
2021/07/29 05:22:27;;;;;;;5.83;4.60;;;;;;;22.38;68.22;99736.02;153982;1100;103154;-80
2021/07/29 05:25:32;;;;;;;5.37;4.87;;;;;;;22.42;67.91;99734.48;154585;1098;103193;-80
2021/07/29 05:28:34;;;;;;;5.90;4.70;;;;;;;22.42;68.00;99733.64;153959;1093;103493;-80
2021/07/29 05:31:40;;;;;;;6.67;4.67;;;;;;;22.48;68.03;99732.66;154598;1093;103189;-79
2021/07/29 05:34:43;;;;;;;6.15;4.18;;;;;;;22.60;67.60;99738.06;153989;1100;103109;-80
2021/07/29 05:37:46;;;;;;;5.23;4.20;;;;;;;22.68;67.86;99734.94;154635;1098;103474;-80
2021/07/29 05:40:49;;;;;;;4.97;4.47;;;;;;;22.65;66.99;99741.70;153961;1101;103185;-81
2021/07/29 05:43:51;;;;;;;5.70;4.40;;;;;;;22.65;67.51;99741.70;153979;1100;103125;-80
2021/07/29 05:46:54;;;;;;;5.97;4.77;;;;;;;22.78;67.41;99735.09;154582;1098;103301;-80
2021/07/29 05:49:57;;;;;;;5.87;5.10;;;;;;;22.91;66.95;99733.95;153943;1094;103153;-79
2021/07/29 05:53:01;;;;;;;5.60;4.87;;;;;;;22.93;66.33;99734.53;154571;1098;103147;-80
2021/07/29 05:56:05;;;;;;;7.57;5.20;;;;;;;22.97;66.69;99738.41;154028;1100;103527;-80
2021/07/29 05:59:08;;;;;;;6.60;5.45;;;;;;;22.97;66.86;99738.41;154637;1093;103194;-80
2021/07/29 06:02:10;;;;;;;6.33;4.97;;;;;;;22.94;65.62;99739.73;154447;1098;103189;-80
2021/07/29 06:05:13;;;;;;;7.87;5.27;;;;;;;22.88;66.15;99739.88;154013;1100;103144;-80
2021/07/29 06:08:16;;;;;;;7.20;4.90;;;;;;;22.86;66.24;99734.68;154110;1101;103196;-80
2021/07/29 06:11:18;;;;;;;7.13;5.00;;;;;;;22.82;65.73;99746.31;153926;1101;103131;-79
2021/07/29 06:14:21;;;;;;;6.67;5.07;;;;;;;22.80;66.48;99751.98;153989;1101;103309;-79
2021/07/29 06:17:27;;;;;;;5.70;4.60;;;;;;;22.79;65.93;99750.36;154023;1094;103259;-79
2021/07/29 06:20:31;;;;;;;5.35;4.60;;;;;;;22.77;66.10;99754.38;153951;1101;103293;-79
2021/07/29 06:23:34;;;;;;;8.08;4.90;;;;;;;22.81;65.92;99750.94;154000;1101;103212;-80
2021/07/29 06:26:38;;;;;;;6.30;5.20;;;;;;;22.82;66.06;99741.69;153967;1093;103195;-80
2021/07/29 06:29:41;;;;;;;6.20;4.95;;;;;;;22.87;65.71;99757.29;153969;1093;103132;-80
2021/07/29 06:32:44;;;;;;;5.33;4.80;;;;;;;22.85;65.90;99756.71;154040;1101;103188;-80
2021/07/29 06:35:47;;;;;;;6.63;5.13;;;;;;;22.89;65.83;99760.59;153950;1101;103193;-79
2021/07/29 06:38:50;;;;;;;6.13;5.37;;;;;;;22.86;65.81;99758.34;153988;1101;103133;-79
2021/07/29 06:41:52;;;;;;;5.60;5.00;;;;;;;22.85;65.97;99756.71;153965;1094;103130;-81
2021/07/29 06:44:56;;;;;;;5.83;4.40;;;;;;;22.93;65.80;99759.02;153908;1094;103127;-80
2021/07/29 06:47:59;;;;;;;5.33;4.83;;;;;;;22.98;63.11;99755.55;154084;1101;103151;-80
2021/07/29 06:51:05;;;;;;;6.07;4.93;;;;;;;22.95;64.19;99762.31;153951;1093;103287;-80
2021/07/29 06:54:08;;;;;;;6.27;4.70;;;;;;;22.96;65.22;99753.09;154019;1101;103197;-80
2021/07/29 06:57:10;;;;;;;5.85;4.80;;;;;;;23.04;64.83;99752.70;153957;1094;103227;-81
2021/07/29 07:00:16;;;;;;;6.40;4.77;;;;;;;22.97;64.52;99753.91;153912;1101;103199;-80
2021/07/29 07:03:19;;;;;;;5.80;5.18;;;;;;;23.04;64.80;99766.31;154029;1093;103125;-79
2021/07/29 07:06:21;;;;;;;5.05;4.55;;;;;;;23.08;64.37;99753.04;153939;1101;103283;-79
2021/07/29 07:09:24;;;;;;;9.07;5.33;;;;;;;23.11;64.52;99756.09;153977;1093;103145;-79
2021/07/29 07:12:27;;;;;;;5.40;4.90;;;;;;;23.12;62.17;99752.28;153967;1093;103221;-80
2021/07/29 07:15:30;;;;;;;6.25;5.10;;;;;;;23.06;63.17;99755.19;153921;1093;103187;-81
2021/07/29 07:18:33;;;;;;;8.90;4.77;;;;;;;23.02;64.30;99754.82;153979;1101;103120;-80
2021/07/29 07:21:37;;;;;;;6.50;4.83;;;;;;;23.11;64.00;99756.09;153972;1094;103266;-80
2021/07/29 07:24:40;;;;;;;5.73;5.13;;;;;;;23.19;63.84;99763.02;154023;1101;103128;-81
2021/07/29 07:27:43;;;;;;;6.27;4.93;;;;;;;23.25;63.80;99758.45;153934;1101;103111;-80
2021/07/29 07:30:46;;;;;;;5.23;4.47;;;;;;;23.31;63.64;99754.75;153919;1101;103200;-81
2021/07/29 07:33:49;;;;;;;5.80;4.70;;;;;;;23.35;63.59;99757.81;153924;1093;103221;-80
2021/07/29 07:36:51;;;;;;;5.90;4.28;;;;;;;23.42;63.33;99750.27;153911;1094;103269;-81
2021/07/29 07:39:54;;;;;;;6.00;5.17;;;;;;;23.48;62.15;99750.10;154045;1101;103119;-80
2021/07/29 07:42:57;;;;;;;6.37;5.27;;;;;;;23.41;61.94;99743.19;153932;1101;103120;-80
2021/07/29 07:46:00;;;;;;;5.30;4.80;;;;;;;23.41;62.39;99754.89;153912;1094;103192;-80
2021/07/29 07:49:03;;;;;;;5.70;4.90;;;;;;;23.40;60.94;99752.41;154005;1094;103120;-80
2021/07/29 07:52:08;;;;;;;4.83;4.33;;;;;;;23.36;61.73;99743.92;153950;1093;103151;-79
2021/07/29 07:55:11;;;;;;;4.98;4.38;;;;;;;23.40;62.67;99749.69;153923;1101;103280;-80
2021/07/29 07:58:14;;;;;;;5.33;4.43;;;;;;;23.53;62.48;99743.89;153948;1101;103239;-80
2021/07/29 08:01:17;;;;;;;5.33;4.83;;;;;;;23.66;62.04;99738.08;154356;1098;103184;-80
2021/07/29 08:04:20;;;;;;;6.23;4.40;;;;;;;23.76;62.48;99742.84;154035;1100;103206;-80
2021/07/29 08:07:22;;;;;;;5.17;4.60;;;;;;;23.86;62.11;99744.90;154541;1098;103189;-80
2021/07/29 08:10:27;;;;;;;6.73;4.80;;;;;;;23.89;61.08;99741.68;153992;1100;103276;-80
2021/07/29 08:13:30;;;;;;;6.20;4.58;;;;;;;23.88;61.79;99740.86;153990;1101;103193;-79
2021/07/29 08:16:35;;;;;;;5.05;4.55;;;;;;;23.95;60.83;99737.12;153979;1101;103139;-80
2021/07/29 08:19:38;;;;;;;5.18;4.45;;;;;;;24.00;61.74;99739.88;153953;1093;103104;-79
2021/07/29 08:22:40;;;;;;;7.10;4.27;;;;;;;24.12;61.21;99728.88;153980;1100;103124;-79
2021/07/29 08:25:43;;;;;;;5.87;5.00;;;;;;;24.13;60.70;99734.05;154216;1098;103176;-79
2021/07/29 08:28:46;;;;;;;4.97;4.43;;;;;;;24.19;61.28;99730.32;154147;1093;103549;-80
2021/07/29 08:31:49;;;;;;;5.05;4.50;;;;;;;24.28;60.76;99726.03;154125;1100;103214;-81
2021/07/29 08:34:52;;;;;;;5.30;4.60;;;;;;;24.26;59.96;99733.64;153978;1093;103103;-79
2021/07/29 08:37:55;;;;;;;4.60;4.03;;;;;;;24.26;58.99;99733.64;154027;1100;103168;-79
2021/07/29 08:40:58;;;;;;;5.10;4.30;;;;;;;24.28;60.39;99728.76;153977;1093;103280;-79
2021/07/29 08:44:00;;;;;;;4.48;4.05;;;;;;;24.42;60.49;99731.92;154019;1101;103189;-79
2021/07/29 08:47:09;;;;;;;5.60;4.45;;;;;;;24.56;59.60;99732.36;153997;1100;103202;-79
2021/07/29 08:50:13;;;;;;;5.75;4.33;;;;;;;24.71;59.76;99728.11;153954;1100;103147;-79
2021/07/29 08:53:16;;;;;;;5.73;3.90;;;;;;;24.86;59.00;99734.51;154016;1101;103172;-80
2021/07/29 08:56:23;;;;;;;5.27;4.03;;;;;;;24.97;59.41;99732.70;153949;1100;103138;-78
2021/07/29 08:59:26;;;;;;;5.27;4.30;;;;;;;25.08;58.89;99731.69;153993;1093;103174;-80
2021/07/29 09:02:30;;;;;;;4.57;4.17;;;;;;;25.05;57.32;99734.12;153937;1100;103104;-79
2021/07/29 09:05:33;;;;;;;5.38;4.30;;;;;;;25.09;58.18;99736.05;154012;1093;103195;-80
2021/07/29 09:08:47;;;;;;;6.07;4.20;;;;;;;25.30;56.91;99744.42;153961;1101;103134;-79
2021/07/29 09:11:49;;;;;;;5.00;3.90;;;;;;;25.45;57.84;99730.86;154025;1100;103160;-79
2021/07/29 09:14:54;;;;;;;4.47;4.07;;;;;;;25.51;56.89;99730.91;153954;1101;103223;-80
2021/07/29 09:17:57;;;;;;;4.67;4.10;;;;;;;25.45;57.53;99730.86;154080;1093;103116;-79
2021/07/29 09:21:12;;;;;;;4.70;4.10;;;;;;;25.54;57.63;99730.36;153991;1093;103193;-80
2021/07/29 09:24:14;;;;;;;4.48;4.03;;;;;;;25.60;57.20;99735.59;153945;1100;103112;-80
2021/07/29 09:27:17;;;;;;;4.43;4.03;;;;;;;25.67;57.45;99732.61;154046;1093;103190;-79
2021/07/29 09:30:23;;;;;;;4.45;3.90;;;;;;;25.76;56.31;99733.75;153958;1100;103132;-79
2021/07/29 09:33:26;;;;;;;5.20;3.95;;;;;;;25.91;56.84;99729.45;154027;1101;103191;-79
2021/07/29 09:36:31;;;;;;;4.20;3.80;;;;;;;26.04;56.15;99723.52;153949;1093;103192;-79
2021/07/29 09:39:34;;;;;;;4.90;3.75;;;;;;;25.97;52.82;99729.22;154004;1100;103669;-80
2021/07/29 09:42:37;;;;;;;4.30;3.90;;;;;;;26.05;55.48;99725.15;153960;1101;103206;-79
2021/07/29 09:45:41;;;;;;;4.60;3.60;;;;;;;26.23;55.87;99721.93;154008;1100;103263;-79
2021/07/29 09:48:45;;;;;;;4.75;3.90;;;;;;;26.35;55.38;99718.09;154057;1100;103243;-80
2021/07/29 09:51:48;;;;;;;4.25;3.85;;;;;;;26.30;55.63;99721.66;153993;1093;103154;-78
2021/07/29 09:54:51;;;;;;;3.73;3.40;;;;;;;26.33;55.55;99721.13;153955;1100;103200;-79
2021/07/29 09:57:54;;;;;;;5.17;3.80;;;;;;;26.39;54.77;99713.75;154039;1100;103259;-78
2021/07/29 10:00:57;;;;;;;4.00;3.70;;;;;;;26.30;55.21;99715.38;154083;1101;103269;-78
2021/07/29 10:04:03;;;;;;;4.00;3.50;;;;;;;26.35;53.16;99724.41;154022;1093;103125;-77
2021/07/29 10:07:11;;;;;;;3.90;3.57;;;;;;;26.30;52.57;99720.84;154034;1093;103273;-78
2021/07/29 10:10:20;;;;;;;4.00;3.60;;;;;;;26.29;54.59;99722.77;154025;1100;103574;-78
2021/07/29 10:13:37;;;;;;;4.40;3.50;;;;;;;26.39;54.38;99724.70;153992;1100;103210;-78
2021/07/29 10:16:47;;;;;;;3.50;3.20;;;;;;;26.38;52.54;99726.59;153978;1093;103585;-78
2021/07/29 10:20:16;;;;;;;4.15;3.48;;;;;;;26.39;54.02;99722.78;154067;1093;103125;-80
2021/07/29 10:23:29;;;;;;;4.23;3.47;;;;;;;26.53;53.85;99714.86;154015;1094;103188;-80
2021/07/29 10:26:34;;;;;;;4.18;3.78;;;;;;;26.38;52.30;99712.91;154012;1100;103103;-79
2021/07/29 10:29:36;;;;;;;4.03;3.55;;;;;;;26.22;53.33;99717.54;154029;1100;103022;-81
2021/07/29 10:32:49;;;;;;;4.13;3.40;;;;;;;26.30;53.87;99715.38;154110;1100;103272;-79
2021/07/29 10:35:53;;;;;;;4.43;3.80;;;;;;;26.29;53.33;99713.72;154009;1100;103306;-80
2021/07/29 10:39:06;;;;;;;3.83;3.47;;;;;;;26.37;53.37;99699.53;153961;1100;103148;-79
2021/07/29 10:42:24;;;;;;;4.30;3.60;;;;;;;26.53;53.06;99703.91;154037;1100;103103;-79
2021/07/29 10:45:48;;;;;;;4.10;3.47;;;;;;;26.76;52.76;99702.58;153977;1100;103172;-80
2021/07/29 10:49:13;;;;;;;3.80;3.50;;;;;;;26.85;52.36;99702.87;154038;1100;103192;-80
2021/07/29 10:52:16;;;;;;;3.87;3.50;;;;;;;26.92;52.44;99695.17;153978;1093;103125;-80
2021/07/29 10:55:21;;;;;;;3.70;3.40;;;;;;;27.03;51.92;99696.00;153939;1100;103135;-78
2021/07/29 10:58:24;;;;;;;3.53;3.20;;;;;;;27.09;51.86;99694.08;154026;1100;103525;-79
2021/07/29 11:01:47;;;;;;;4.67;3.60;;;;;;;27.15;52.09;99698.44;154069;1093;103189;-80
2021/07/29 11:04:54;;;;;;;3.90;3.17;;;;;;;27.26;51.83;99699.28;153994;1093;103292;-79
2021/07/29 11:07:57;;;;;;;3.95;3.23;;;;;;;27.30;52.02;99695.70;154074;1100;103156;-79
2021/07/29 11:11:04;;;;;;;3.50;3.20;;;;;;;27.33;52.28;99697.89;154014;1100;103096;-80
2021/07/29 11:14:07;;;;;;;3.53;3.23;;;;;;;27.19;51.27;99705.00;153969;1100;103211;-78
2021/07/29 11:17:11;;;;;;;3.27;3.00;;;;;;;27.15;51.39;99709.39;154029;1093;103200;-80
2021/07/29 11:20:24;;;;;;;3.45;3.05;;;;;;;27.13;50.88;99704.19;154006;1093;103192;-80
2021/07/29 11:23:35;;;;;;;3.30;3.00;;;;;;;27.09;51.66;99705.84;153964;1101;103191;-80
2021/07/29 11:26:44;;;;;;;3.30;3.00;;;;;;;26.99;50.79;99712.15;153989;1100;103200;-80
2021/07/29 11:29:54;;;;;;;4.48;3.25;;;;;;;26.96;50.58;99696.27;154067;1100;103310;-80
2021/07/29 11:32:57;;;;;;;3.60;2.98;;;;;;;27.09;49.34;99699.55;154086;1100;103129;-79
2021/07/29 11:36:08;;;;;;;3.30;2.97;;;;;;;27.19;50.62;99700.33;154095;1093;103272;-80
2021/07/29 11:39:11;;;;;;;4.00;3.00;;;;;;;27.30;50.81;99701.17;154363;1100;103194;-79
2021/07/29 11:42:14;;;;;;;4.07;3.17;;;;;;;27.41;50.94;99694.58;154429;1100;103130;-81
2021/07/29 11:45:25;;;;;;;3.00;2.70;;;;;;;27.57;50.80;99697.27;154002;1100;104699;-80
2021/07/29 11:48:28;;;;;;;3.90;2.90;;;;;;;27.70;49.69;99693.11;154016;1093;103197;-79
2021/07/29 11:51:31;;;;;;;3.20;2.90;;;;;;;27.69;49.68;99689.53;153982;1094;103207;-81
2021/07/29 11:54:34;;;;;;;3.10;2.80;;;;;;;27.62;49.34;99691.77;153983;1100;103259;-81
2021/07/29 11:57:38;;;;;;;3.60;2.63;;;;;;;27.73;49.71;99685.13;153976;1091;103125;-79
2021/07/29 12:00:41;;;;;;;3.33;2.80;;;;;;;27.88;48.62;99687.01;154049;1093;103130;-79
2021/07/29 12:03:48;;;;;;;2.95;2.65;;;;;;;27.86;48.81;99680.95;154012;1093;103208;-80
2021/07/29 12:06:52;;;;;;;3.23;2.93;;;;;;;27.95;49.56;99675.75;154088;1100;103932;-80
2021/07/29 12:09:54;;;;;;;2.88;2.68;;;;;;;27.97;48.19;99671.61;154124;1100;103136;-80
2021/07/29 12:12:57;;;;;;;4.30;2.53;;;;;;;28.00;49.45;99675.70;154021;1100;103129;-79
2021/07/29 12:16:00;;;;;;;3.60;2.70;;;;;;;27.95;49.14;99678.49;153947;1100;103189;-79
2021/07/29 12:19:03;;;;;;;3.00;2.70;;;;;;;27.87;48.67;99682.61;154040;1100;103217;-80
2021/07/29 12:22:23;;;;;;;5.43;2.77;;;;;;;27.77;48.19;99678.00;154111;1101;103300;-80
2021/07/29 12:25:31;;;;;;;2.77;2.53;;;;;;;27.72;48.81;99680.76;154162;1093;103502;-80
2021/07/29 12:28:43;;;;;;;5.50;2.80;;;;;;;27.81;48.73;99678.23;154036;1101;103125;-81
2021/07/29 12:31:46;;;;;;;3.10;2.70;;;;;;;27.95;48.17;99665.59;154021;1094;103153;-79
2021/07/29 12:34:50;;;;;;;2.80;2.50;;;;;;;27.98;47.73;99658.71;153976;1100;103237;-80
2021/07/29 12:37:59;;;;;;;2.50;2.30;;;;;;;27.98;48.48;99665.04;154052;1100;103253;-79
2021/07/29 12:41:02;;;;;;;2.80;2.60;;;;;;;27.86;47.90;99655.47;154077;1094;103125;-81
2021/07/29 12:44:11;;;;;;;3.53;2.33;;;;;;;27.63;47.74;99657.77;154148;1100;103216;-80
2021/07/29 12:47:14;;;;;;;2.90;2.50;;;;;;;27.44;48.16;99648.53;154040;1093;103135;-79
2021/07/29 12:50:37;;;;;;;3.00;2.35;;;;;;;27.23;47.08;99645.83;154200;1100;103138;-81
2021/07/29 12:53:40;;;;;;;2.95;2.33;;;;;;;27.10;47.75;99654.63;154008;1100;103191;-81
2021/07/29 12:56:44;;;;;;;2.30;2.10;;;;;;;27.14;48.20;99655.73;154070;1100;103282;-80
2021/07/29 12:59:48;;;;;;;4.07;2.27;;;;;;;27.11;48.19;99654.34;154061;1100;103195;-80
2021/07/29 13:02:52;;;;;;;3.93;2.47;;;;;;;27.03;47.70;99661.21;153999;1100;103182;-79
2021/07/29 13:05:56;;;;;;;3.50;2.70;;;;;;;27.01;47.71;99644.24;154013;1100;103184;-80
2021/07/29 13:08:59;;;;;;;3.38;2.70;;;;;;;27.00;48.02;99652.73;153992;1093;103210;-79
2021/07/29 13:12:03;;;;;;;2.90;2.60;;;;;;;27.03;47.37;99647.52;154053;1093;103205;-80
2021/07/29 13:15:08;;;;;;;4.93;2.33;;;;;;;26.96;47.92;99641.50;153936;1100;103211;-81
2021/07/29 13:18:11;;;;;;;2.53;2.33;;;;;;;26.88;47.53;99644.81;154128;1093;103192;-80
2021/07/29 13:21:13;;;;;;;2.90;2.50;;;;;;;26.92;47.66;99639.61;154181;1099;103272;-80
2021/07/29 13:24:16;;;;;;;2.50;2.30;;;;;;;27.01;47.69;99629.73;154587;1098;103270;-80
2021/07/29 13:27:19;;;;;;;2.53;2.33;;;;;;;27.14;47.27;99634.64;154747;1098;103040;-80
2021/07/29 13:30:22;;;;;;;2.77;2.40;;;;;;;27.18;47.26;99629.42;154685;1098;103276;-81
2021/07/29 13:33:24;;;;;;;2.30;2.10;;;;;;;27.18;47.76;99627.50;154062;1100;103144;-80
2021/07/29 13:36:27;;;;;;;3.50;2.40;;;;;;;27.18;47.63;99632.16;154724;1098;103162;-81
2021/07/29 13:39:30;;;;;;;3.23;2.50;;;;;;;27.27;47.78;99626.95;154026;1100;103280;-80
2021/07/29 13:42:33;;;;;;;2.70;2.50;;;;;;;27.34;47.47;99620.07;154691;1098;103229;-79
2021/07/29 13:45:36;;;;;;;2.50;2.30;;;;;;;27.41;47.19;99631.56;153987;1094;103187;-79
2021/07/29 13:48:39;;;;;;;2.47;2.27;;;;;;;27.39;46.99;99621.98;153998;1100;103646;-79
2021/07/29 13:51:42;;;;;;;2.60;2.40;;;;;;;27.58;47.49;99627.63;153980;1094;103112;-79
2021/07/29 13:54:45;;;;;;;3.80;2.50;;;;;;;27.75;47.21;99630.02;154747;1093;103224;-79
2021/07/29 13:57:48;;;;;;;2.47;2.23;;;;;;;27.81;46.60;99618.77;154179;1100;103264;-80
2021/07/29 14:00:51;;;;;;;2.43;2.23;;;;;;;27.78;46.61;99613.83;154040;1100;103192;-81
2021/07/29 14:03:54;;;;;;;2.90;2.47;;;;;;;27.76;46.85;99616.04;154140;1101;103118;-80
2021/07/29 14:06:57;;;;;;;2.70;2.37;;;;;;;27.73;46.14;99610.30;154163;1100;103108;-80